Terminal Aerodrome Forecast
Issued by NWS Brownsville, TX

Home | Current Version | Previous Version | Text Only | Print | Product List | Glossary On
Versions: 1 2 3 4 5 6 7 8 9 10 11 12 13
000
FTUS44 KBRO 282339
TAFMFE
TAF
KMFE 282339Z 2900/2924 13016KT P6SM SCT250
     FM290200 14009KT P6SM SCT250
     FM290900 14008KT P6SM BKN025
     FM291200 14007KT 5SM BR BKN025
     FM291500 15012KT P6SM SCT250=

USA.gov is the U.S. government's official web portal to all federal, state and local government web resources and services.